»·PEaware :: SWA113 KBOI-KSEA

SWA113 :: KBOI-KSEA

FLIGHT INFORMATION

Flight Status: Arrived
Operator:
Southwest Airlines
More flights by this operator :: More flights under this callsign
Pilot: Anonymous 17611 (17611)
Aircraft: Unknown
(B38M)
More flights by this aircraft type
Origin: KBOI Boise Air Terminal/Gowen
United States
Destination: KSEA Seattle-Tacoma Intl
United States
More flights between these airports :: More routes between these airports
Route: +BOI3 OLAAH PREIS PDT CHINS4
File this flight plan on PilotEdge
Remarks:
Altitude:
(Current/Filed)
32,000ft
Speed:
(Current/Filed)
452kts
Departed: 18-Mar-20 01:46 PM
Arrived: 18-Mar-20 02:47 PM
Distance/Time
Traveled:
346nm/1:00
Distance/Time
To Go:
Arrived

Flight Plot

Page will automatically refresh every two minutes.


Map Options




Map Legend


Flown Route
Filed Route
Departure Airport
Arrival Airport
Navaid (VOR, NDB)
Fix

Horizontal Profiles

Position Reports

Time Latitude Longitude Heading Altitude Ground
Speed
18-Mar-20 12:55 43.566767 -116.219254 24 2852ft 0kts
18-Mar-20 12:56 43.566767 -116.219254 24 2852ft 0kts
18-Mar-20 12:57 43.566767 -116.219254 24 2852ft 0kts
18-Mar-20 12:58 43.566767 -116.219254 24 2852ft 0kts
18-Mar-20 12:59 43.566767 -116.219254 24 2852ft 0kts
18-Mar-20 13:00 43.566767 -116.219254 24 2852ft 0kts
18-Mar-20 13:01 43.566767 -116.219254 24 2852ft 0kts
18-Mar-20 13:02 43.566767 -116.219254 24 2852ft 0kts
18-Mar-20 13:03 43.566767 -116.219254 24 2852ft 0kts
18-Mar-20 13:04 43.566767 -116.219254 24 2852ft 0kts
18-Mar-20 13:05 43.566767 -116.219254 24 2852ft 0kts
18-Mar-20 13:07 43.566767 -116.219254 24 2852ft 0kts
18-Mar-20 13:08 43.566767 -116.219254 24 2852ft 0kts
18-Mar-20 13:09 43.566767 -116.219254 24 2852ft 0kts
18-Mar-20 13:10 43.566767 -116.219254 24 2852ft 0kts
18-Mar-20 13:11 43.566767 -116.219254 24 2852ft 0kts
18-Mar-20 13:12 43.566767 -116.219254 24 2852ft 0kts
18-Mar-20 13:13 43.566767 -116.219254 24 2852ft 0kts
18-Mar-20 13:14 43.566767 -116.219254 24 2852ft 0kts
18-Mar-20 13:15 43.566767 -116.219254 24 2852ft 0kts
18-Mar-20 13:16 43.566767 -116.219254 24 2852ft 0kts
18-Mar-20 13:17 43.566767 -116.219254 24 2852ft 0kts
18-Mar-20 13:18 43.566767 -116.219254 24 2852ft 0kts
18-Mar-20 13:19 43.566767 -116.219254 24 2852ft 0kts
18-Mar-20 13:20 43.566767 -116.219254 24 2852ft 0kts
18-Mar-20 13:21 43.566767 -116.219254 24 2852ft 0kts
18-Mar-20 13:22 43.566767 -116.219254 24 2852ft 0kts
18-Mar-20 13:23 43.566767 -116.219254 24 2852ft 0kts
18-Mar-20 13:24 43.566767 -116.219254 24 2852ft 0kts
18-Mar-20 13:25 43.566767 -116.219254 24 2852ft 0kts
18-Mar-20 13:26 43.566767 -116.219254 24 2852ft 0kts
18-Mar-20 13:26 43.566767 -116.219254 24 2852ft 0kts
18-Mar-20 13:28 43.566767 -116.219254 24 2852ft 0kts
18-Mar-20 13:28 43.566767 -116.219254 24 2852ft 0kts
18-Mar-20 13:29 43.566767 -116.219254 24 2852ft 0kts
18-Mar-20 13:31 43.566767 -116.219254 24 2852ft 0kts
18-Mar-20 13:31 43.566767 -116.219254 24 2852ft 0kts
18-Mar-20 13:32 43.566767 -116.219254 24 2852ft 0kts
18-Mar-20 13:33 43.566767 -116.219254 24 2852ft 0kts
18-Mar-20 13:34 43.566767 -116.219254 24 2852ft 0kts
18-Mar-20 13:35 43.566767 -116.219254 24 2852ft 0kts
18-Mar-20 13:36 43.566660 -116.219319 27 2852ft 2kts
18-Mar-20 13:37 43.566532 -116.219953 120 2852ft 1kts
18-Mar-20 13:38 43.566548 -116.219994 116 2852ft 0kts
18-Mar-20 13:39 43.566543 -116.219981 117 2852ft 0kts
18-Mar-20 13:40 43.565880 -116.218615 118 2854ft 0kts
18-Mar-20 13:41 43.564852 -116.217164 153 2855ft 13kts
18-Mar-20 13:42 43.562221 -116.209919 114 2863ft 26kts
18-Mar-20 13:43 43.559604 -116.202451 121 2872ft 15kts
18-Mar-20 13:44 43.559200 -116.202534 204 2872ft 8kts
18-Mar-20 13:45 43.564863 -116.221251 295 2861ft 161kts
18-Mar-20 13:46 43.587896 -116.293295 294 4315ft 267kts
18-Mar-20 13:47 43.621045 -116.393684 295 8125ft 278kts
18-Mar-20 13:48 43.655011 -116.495181 295 10740ft 322kts
18-Mar-20 13:49 43.728448 -116.560612 345 13930ft 338kts
18-Mar-20 13:50 43.820892 -116.596439 345 16015ft 351kts
18-Mar-20 13:51 43.914345 -116.632750 345 16018ft 349kts
18-Mar-20 13:52 44.002662 -116.667175 345 18039ft 360kts
18-Mar-20 13:53 44.101043 -116.706176 340 20876ft 377kts
18-Mar-20 13:54 44.190521 -116.787038 317 23403ft 396kts
18-Mar-20 13:55 44.268371 -116.899462 316 25690ft 411kts
18-Mar-20 13:56 44.351530 -117.013850 317 27637ft 429kts
18-Mar-20 13:57 44.437992 -117.133321 319 29555ft 442kts
18-Mar-20 13:58 44.525945 -117.255384 319 31623ft 445kts
18-Mar-20 13:59 44.615358 -117.380014 319 31894ft 456kts
18-Mar-20 14:00 44.705162 -117.505886 319 31891ft 457kts
18-Mar-20 14:01 44.794857 -117.632138 319 31895ft 457kts
18-Mar-20 14:02 44.884756 -117.759320 318 31886ft 457kts
18-Mar-20 14:03 44.974487 -117.886886 319 31885ft 458kts
18-Mar-20 14:04 45.064399 -118.015282 321 31893ft 464kts
18-Mar-20 14:05 45.152113 -118.141409 322 31909ft 441kts
18-Mar-20 14:06 45.238049 -118.265195 322 31906ft 443kts
18-Mar-20 14:07 45.324470 -118.390318 322 31911ft 442kts
18-Mar-20 14:08 45.410541 -118.515522 322 31930ft 441kts
18-Mar-20 14:09 45.496191 -118.640605 322 31939ft 442kts
18-Mar-20 14:10 45.580394 -118.764262 321 31934ft 442kts
18-Mar-20 14:11 45.666225 -118.890928 322 31933ft 446kts
18-Mar-20 14:12 45.750975 -119.025069 318 31932ft 458kts
18-Mar-20 14:13 45.833332 -119.164942 316 31942ft 458kts
18-Mar-20 14:14 45.915997 -119.305434 316 31939ft 464kts
18-Mar-20 14:15 45.998858 -119.447275 316 31936ft 464kts
18-Mar-20 14:16 46.081934 -119.590080 316 31927ft 464kts
18-Mar-20 14:17 46.164861 -119.733329 316 31929ft 466kts
18-Mar-20 14:18 46.248028 -119.877670 316 31751ft 468kts
18-Mar-20 14:19 46.327388 -120.016303 315 30178ft 457kts
18-Mar-20 14:20 46.409075 -120.159457 315 28488ft 464kts
18-Mar-20 14:21 46.489980 -120.302190 314 26780ft 442kts
18-Mar-20 14:22 46.565665 -120.436418 314 25085ft 421kts
18-Mar-20 14:23 46.633678 -120.575149 309 23907ft 418kts
18-Mar-20 14:25 46.710341 -120.736822 308 22850ft 413kts
18-Mar-20 14:25 46.763987 -120.850313 308 22091ft 408kts
18-Mar-20 14:26 46.827724 -120.985672 308 21179ft 402kts
18-Mar-20 14:27 46.889809 -121.118165 307 20266ft 387kts
18-Mar-20 14:28 46.947334 -121.241557 307 19346ft 353kts
18-Mar-20 14:29 46.998741 -121.352134 306 18953ft 344kts
18-Mar-20 14:30 47.052193 -121.467480 306 18988ft 342kts
18-Mar-20 14:31 47.105336 -121.582622 306 18194ft 343kts
18-Mar-20 14:32 47.157317 -121.695774 305 16626ft 337kts
18-Mar-20 14:33 47.207441 -121.805397 305 16011ft 327kts
18-Mar-20 14:34 47.257892 -121.916135 304 14847ft 316kts
18-Mar-20 14:35 47.303754 -122.017209 304 13376ft 293kts
18-Mar-20 14:36 47.348649 -122.116448 305 12031ft 289kts
18-Mar-20 14:37 47.419342 -122.148594 358 10833ft 290kts
18-Mar-20 14:38 47.496029 -122.149584 358 9377ft 282kts
18-Mar-20 14:39 47.570961 -122.149917 358 7920ft 276kts
18-Mar-20 14:40 47.644708 -122.149945 355 7016ft 262kts
18-Mar-20 14:41 47.678901 -122.230116 275 5850ft 243kts
18-Mar-20 14:42 47.638140 -122.288443 205 4173ft 215kts
18-Mar-20 14:43 47.581201 -122.307754 179 2678ft 208kts
18-Mar-20 14:44 47.526267 -122.307242 181 1593ft 184kts
18-Mar-20 14:45 47.479753 -122.307676 181 695ft 156kts
18-Mar-20 14:46 47.446934 -122.307913 180 334ft 34kts
18-Mar-20 14:47 47.446877 -122.306249 12 334ft 16kts
18-Mar-20 14:48 47.447375 -122.302648 41 334ft 11kts
18-Mar-20 14:49 47.447604 -122.302346 42 334ft 0kts
18-Mar-20 14:50 47.447604 -122.302346 42 334ft 0kts
18-Mar-20 14:51 47.447604 -122.302346 42 334ft 0kts
18-Mar-20 14:52 47.447604 -122.302346 42 334ft 0kts
18-Mar-20 14:53 47.447604 -122.302346 42 334ft 0kts
18-Mar-20 14:54 47.447604 -122.302346 42 334ft 0kts
18-Mar-20 14:55 47.447604 -122.302346 42 334ft 0kts
18-Mar-20 14:56 47.447604 -122.302346 42 334ft 0kts
18-Mar-20 14:57 47.447604 -122.302346 42 334ft 0kts
18-Mar-20 14:58 47.447604 -122.302346 42 334ft 0kts
18-Mar-20 14:59 47.447604 -122.302346 42 334ft 0kts
18-Mar-20 15:00 47.447604 -122.302346 42 334ft 0kts

Navigation Log

Ident Type
Flight plan parsing failed, navigation log unavailable